createdAt,value
2019-01-29T00:01:14.549Z,93.08
2019-01-29T00:03:21.428Z,93.08
2019-01-29T00:05:27.768Z,93.08
2019-01-29T00:07:34.169Z,93.11
2019-01-29T00:09:40.669Z,93.15
2019-01-29T00:11:47.188Z,93.20
2019-01-29T00:13:53.488Z,93.27
2019-01-29T00:16:00.370Z,93.32
2019-01-29T00:18:06.668Z,93.38
2019-01-29T00:20:13.276Z,93.42
2019-01-29T00:22:20.339Z,93.45
2019-01-29T00:24:29.488Z,93.48
2019-01-29T00:26:36.468Z,93.49
2019-01-29T00:28:42.996Z,93.51
2019-01-29T00:30:49.448Z,93.50
2019-01-29T00:32:56.211Z,93.49
2019-01-29T00:35:02.476Z,93.47
2019-01-29T00:37:08.671Z,93.45
2019-01-29T00:39:15.011Z,93.41
2019-01-29T00:41:21.549Z,93.37
2019-01-29T00:43:28.277Z,93.35
2019-01-29T00:45:34.569Z,93.31
2019-01-29T00:47:41.368Z,93.31
2019-01-29T00:49:49.168Z,93.30
2019-01-29T00:51:56.471Z,93.28
2019-01-29T00:54:03.430Z,93.21
2019-01-29T00:56:09.949Z,93.16
2019-01-29T00:58:16.489Z,93.13
2019-01-29T01:00:24.928Z,93.12
2019-01-29T01:02:31.129Z,93.13
2019-01-29T01:04:38.248Z,93.15
2019-01-29T01:06:44.728Z,93.14
2019-01-29T01:08:53.469Z,93.15
2019-01-29T01:10:59.709Z,93.17
2019-01-29T01:13:08.028Z,93.19
2019-01-29T01:15:15.334Z,93.21
2019-01-29T01:17:22.208Z,93.20
2019-01-29T01:19:29.008Z,93.19
2019-01-29T01:21:35.388Z,93.25
2019-01-29T01:23:41.831Z,93.33
2019-01-29T01:25:48.756Z,93.39
2019-01-29T01:27:54.934Z,93.45
2019-01-29T01:30:01.430Z,93.52
2019-01-29T01:32:08.630Z,93.58
2019-01-29T01:34:17.729Z,93.67
2019-01-29T01:36:24.588Z,93.72
2019-01-29T01:38:31.127Z,93.73
2019-01-29T01:40:37.647Z,93.73
2019-01-29T01:42:44.171Z,93.75
2019-01-29T01:44:51.469Z,93.74
2019-01-29T01:46:58.548Z,93.71
2019-01-29T01:49:04.768Z,93.69
2019-01-29T01:51:11.170Z,93.61
2019-01-29T01:53:17.448Z,93.53
2019-01-29T01:55:23.808Z,93.45
2019-01-29T01:57:30.616Z,93.36
2019-01-29T01:59:36.708Z,93.22
2019-01-29T02:01:42.928Z,93.13
2019-01-29T02:03:52.728Z,93.06
2019-01-29T02:06:01.109Z,93.01
2019-01-29T02:08:13.889Z,92.93
2019-01-29T02:10:30.148Z,92.88
2019-01-29T02:12:37.208Z,92.85
2019-01-29T02:14:43.708Z,92.83
2019-01-29T02:16:51.628Z,92.83
2019-01-29T02:19:11.369Z,92.80
2019-01-29T02:21:18.571Z,92.74
2019-01-29T02:23:25.788Z,92.70
2019-01-29T02:25:31.871Z,92.58
2019-01-29T02:27:38.229Z,92.42
2019-01-29T02:29:45.568Z,92.40
2019-01-29T02:31:52.768Z,92.39
2019-01-29T02:33:59.828Z,92.34
2019-01-29T02:36:06.289Z,92.33
2019-01-29T02:38:13.311Z,92.31
2019-01-29T02:40:22.828Z,92.26
2019-01-29T02:42:35.109Z,92.24
2019-01-29T02:44:42.908Z,92.17
2019-01-29T02:46:54.828Z,92.20
2019-01-29T02:49:17.999Z,92.21
2019-01-29T02:51:32.908Z,92.12
2019-01-29T02:53:40.328Z,92.16
2019-01-29T02:55:46.468Z,92.21
2019-01-29T02:57:52.694Z,92.20
2019-01-29T02:59:59.368Z,92.27
2019-01-29T03:02:07.409Z,92.29
2019-01-29T03:07:39.368Z,92.30
2019-01-29T03:09:46.248Z,92.26
2019-01-29T03:11:52.547Z,92.27
2019-01-29T03:14:02.748Z,92.25
2019-01-29T03:16:09.129Z,92.12
2019-01-29T03:18:15.527Z,92.06
2019-01-29T03:20:21.908Z,92.05
2019-01-29T03:22:28.231Z,92.09
2019-01-29T03:24:34.669Z,92.10
2019-01-29T03:26:41.167Z,92.08
2019-01-29T03:28:47.610Z,92.07
2019-01-29T03:30:53.889Z,92.00
2019-01-29T03:33:00.070Z,92.06
2019-01-29T03:35:08.827Z,92.00
2019-01-29T03:37:15.908Z,92.03
2019-01-29T03:39:23.989Z,92.02
2019-01-29T03:41:31.388Z,92.01
2019-01-29T03:43:38.528Z,92.00
2019-01-29T03:45:54.789Z,92.01
2019-01-29T03:48:05.888Z,91.94
2019-01-29T03:50:18.410Z,91.94
2019-01-29T03:52:25.713Z,91.97
2019-01-29T03:54:32.169Z,91.97
2019-01-29T03:56:38.470Z,91.96
2019-01-29T03:58:45.289Z,91.96
2019-01-29T04:00:52.047Z,91.87
2019-01-29T04:02:58.667Z,91.85
2019-01-29T04:05:06.149Z,91.87
2019-01-29T04:07:12.555Z,91.83
2019-01-29T04:09:18.948Z,91.88
2019-01-29T04:11:26.588Z,91.91
2019-01-29T04:13:33.189Z,91.89
2019-01-29T04:15:40.271Z,91.88
2019-01-29T04:17:47.208Z,91.81
2019-01-29T04:19:53.609Z,91.78
2019-01-29T04:22:00.001Z,91.80
2019-01-29T04:24:08.308Z,91.82
2019-01-29T04:26:22.028Z,91.74
2019-01-29T04:28:33.908Z,91.73
2019-01-29T04:30:46.910Z,91.71
2019-01-29T04:32:53.069Z,91.59
2019-01-29T04:35:01.769Z,91.53
2019-01-29T04:37:08.888Z,91.55
2019-01-29T04:39:15.248Z,91.45
2019-01-29T04:41:21.610Z,91.47
2019-01-29T04:43:29.328Z,91.48
2019-01-29T04:45:35.539Z,91.41
2019-01-29T04:47:42.054Z,91.31
2019-01-29T04:49:48.651Z,91.33
2019-01-29T04:51:56.208Z,91.38
2019-01-29T04:54:02.407Z,91.40
2019-01-29T04:56:09.228Z,91.39
2019-01-29T04:58:15.273Z,91.30
2019-01-29T05:00:26.842Z,91.11
2019-01-29T05:02:33.169Z,91.12
2019-01-29T05:04:41.210Z,91.19
2019-01-29T05:06:49.748Z,91.12
2019-01-29T05:08:56.408Z,91.09
2019-01-29T05:11:03.848Z,90.92
2019-01-29T05:13:10.269Z,91.06
2019-01-29T05:15:19.439Z,91.21
2019-01-29T05:17:26.948Z,91.18
2019-01-29T05:19:34.407Z,91.22
2019-01-29T05:21:41.948Z,91.22
2019-01-29T05:23:49.899Z,91.12
2019-01-29T05:25:56.368Z,91.04
2019-01-29T05:28:03.088Z,91.10
2019-01-29T05:30:16.889Z,91.21
2019-01-29T05:32:25.399Z,91.20
2019-01-29T05:34:32.154Z,91.03
2019-01-29T05:36:38.468Z,90.99
2019-01-29T05:38:45.149Z,90.93
2019-01-29T05:40:53.320Z,90.99
2019-01-29T05:43:00.428Z,90.99
2019-01-29T05:45:12.618Z,91.08
2019-01-29T05:47:20.171Z,91.09
2019-01-29T05:49:26.636Z,91.06
2019-01-29T05:51:33.393Z,91.05
2019-01-29T05:53:39.768Z,91.13
2019-01-29T05:55:46.250Z,91.11
2019-01-29T05:57:52.750Z,91.13
2019-01-29T05:59:59.088Z,91.23
2019-01-29T06:02:05.771Z,91.17
2019-01-29T06:04:12.268Z,91.14
2019-01-29T06:06:20.156Z,91.20
2019-01-29T06:10:57.868Z,91.23
2019-01-29T06:13:07.349Z,91.16
2019-01-29T06:15:25.548Z,91.03
2019-01-29T06:17:32.071Z,91.00
2019-01-29T06:19:43.931Z,91.20
2019-01-29T06:21:56.532Z,91.11
2019-01-29T06:24:02.929Z,91.12
2019-01-29T06:26:09.468Z,90.99
2019-01-29T06:28:18.828Z,90.93
2019-01-29T06:30:26.808Z,90.99
2019-01-29T06:32:34.129Z,90.88
2019-01-29T06:34:41.907Z,90.79
2019-01-29T06:36:50.924Z,90.77
2019-01-29T06:39:00.208Z,90.89
2019-01-29T06:41:06.730Z,91.09
2019-01-29T06:43:12.950Z,91.05
2019-01-29T06:45:23.429Z,91.00
2019-01-29T06:47:30.849Z,91.02
2019-01-29T06:49:40.388Z,90.99
2019-01-29T06:51:48.490Z,90.91
2019-01-29T06:53:55.309Z,91.11
2019-01-29T06:56:09.767Z,91.01
2019-01-29T06:58:20.654Z,91.14
2019-01-29T07:00:31.990Z,91.05
2019-01-29T07:02:38.069Z,90.97
2019-01-29T07:04:44.640Z,91.07
2019-01-29T07:06:51.029Z,90.95
2019-01-29T07:08:58.168Z,90.95
2019-01-29T07:11:04.488Z,91.21
2019-01-29T07:13:11.328Z,91.25
2019-01-29T07:15:45.288Z,91.00
2019-01-29T07:17:51.628Z,91.23
2019-01-29T07:19:57.929Z,90.90
2019-01-29T07:22:05.188Z,90.83
2019-01-29T07:24:12.331Z,90.99
2019-01-29T07:26:19.395Z,91.54
2019-01-29T07:28:27.330Z,91.48
2019-01-29T07:30:36.946Z,91.12
2019-01-29T07:32:43.392Z,90.85
2019-01-29T07:34:50.306Z,91.01
2019-01-29T07:36:56.608Z,91.49
2019-01-29T07:39:04.871Z,90.95
2019-01-29T07:41:11.428Z,91.25
2019-01-29T07:43:17.748Z,91.63
2019-01-29T07:45:25.192Z,91.53
2019-01-29T07:47:32.369Z,90.26
2019-01-29T07:49:38.868Z,88.89
2019-01-29T07:51:46.408Z,90.06
2019-01-29T07:53:52.748Z,90.70
2019-01-29T07:55:59.048Z,88.55
2019-01-29T07:58:07.070Z,88.47
2019-01-29T08:00:18.429Z,88.08
2019-01-29T08:02:25.688Z,88.33
2019-01-29T08:04:31.984Z,88.43
2019-01-29T08:06:41.689Z,88.88
2019-01-29T08:08:49.332Z,88.96
2019-01-29T08:10:55.568Z,89.32
2019-01-29T08:13:01.809Z,88.58
2019-01-29T08:15:12.430Z,89.13
2019-01-29T08:17:19.369Z,88.87
2019-01-29T08:19:27.468Z,87.03
2019-01-29T08:21:33.749Z,85.55
2019-01-29T08:23:40.091Z,87.04
2019-01-29T08:25:47.801Z,87.55
2019-01-29T08:27:58.449Z,86.88
2019-01-29T08:30:06.308Z,86.91
2019-01-29T08:32:12.909Z,86.65
2019-01-29T08:34:19.204Z,87.50
2019-01-29T08:36:25.508Z,87.53
2019-01-29T08:38:31.889Z,87.85
2019-01-29T08:40:38.248Z,88.03
2019-01-29T08:42:44.568Z,88.26
2019-01-29T08:44:50.669Z,88.62
2019-01-29T08:46:56.989Z,88.76
2019-01-29T08:49:03.250Z,87.72
2019-01-29T08:51:09.649Z,87.81
2019-01-29T08:53:17.108Z,87.99
2019-01-29T08:55:23.529Z,87.99
2019-01-29T08:57:30.088Z,87.76
2019-01-29T08:59:36.409Z,88.24
2019-01-29T09:01:44.249Z,88.40
2019-01-29T09:03:50.548Z,88.32
2019-01-29T09:05:57.388Z,87.98
2019-01-29T09:08:04.148Z,87.87
2019-01-29T09:10:17.088Z,87.88
2019-01-29T09:12:23.468Z,87.52
2019-01-29T09:14:30.012Z,87.52
2019-01-29T09:16:36.189Z,87.59
2019-01-29T09:18:42.688Z,87.42
2019-01-29T09:20:49.292Z,87.68
2019-01-29T09:22:57.430Z,87.62
2019-01-29T09:25:04.193Z,87.71
2019-01-29T09:27:10.489Z,87.52
2019-01-29T09:29:17.862Z,87.98
2019-01-29T09:31:24.508Z,88.00
2019-01-29T09:33:31.591Z,88.70
2019-01-29T09:35:37.889Z,88.88
2019-01-29T09:37:44.496Z,88.45
2019-01-29T09:39:51.369Z,88.54
2019-01-29T09:41:58.008Z,88.81
2019-01-29T09:44:04.530Z,88.91
2019-01-29T09:46:10.848Z,88.81
2019-01-29T09:48:18.168Z,88.49
2019-01-29T09:50:29.429Z,88.52
2019-01-29T09:52:36.049Z,88.29
2019-01-29T09:54:42.807Z,88.64
2019-01-29T09:56:49.759Z,88.19
2019-01-29T09:58:56.308Z,88.14
2019-01-29T10:01:02.728Z,88.02
2019-01-29T10:03:09.049Z,88.06
2019-01-29T10:05:15.868Z,87.52
2019-01-29T10:07:23.468Z,87.79
2019-01-29T10:09:29.675Z,87.88
2019-01-29T10:11:35.873Z,87.87
2019-01-29T10:13:42.049Z,87.87
2019-01-29T10:15:48.368Z,87.98
2019-01-29T10:17:54.988Z,86.88
2019-01-29T10:20:02.783Z,86.98
2019-01-29T10:22:10.788Z,87.35
2019-01-29T10:24:17.248Z,87.41
2019-01-29T10:26:23.869Z,87.54
2019-01-29T10:28:30.255Z,87.53
2019-01-29T10:30:38.988Z,88.00
2019-01-29T10:32:45.268Z,88.02
2019-01-29T10:34:51.690Z,88.10
2019-01-29T10:36:58.428Z,88.33
2019-01-29T10:39:07.088Z,88.83
2019-01-29T10:41:13.388Z,88.88
2019-01-29T10:43:19.812Z,88.65
2019-01-29T10:45:28.849Z,89.08
2019-01-29T10:47:36.069Z,89.09
2019-01-29T10:49:42.449Z,88.68
2019-01-29T10:51:49.250Z,88.61
2019-01-29T10:53:55.934Z,88.52
2019-01-29T10:56:03.714Z,88.71
2019-01-29T10:58:11.830Z,88.88
2019-01-29T11:00:26.434Z,88.62
2019-01-29T11:02:32.970Z,88.44
2019-01-29T11:04:39.275Z,88.60
2019-01-29T11:06:45.710Z,88.81
2019-01-29T11:08:52.933Z,89.06
2019-01-29T11:10:59.226Z,89.01
2019-01-29T11:13:07.387Z,88.88
2019-01-29T11:15:21.410Z,88.42
2019-01-29T11:17:28.012Z,88.31
2019-01-29T11:19:34.564Z,88.24
2019-01-29T11:21:41.453Z,88.14
2019-01-29T11:23:49.111Z,88.02
2019-01-29T11:25:56.245Z,88.12
2019-01-29T11:28:03.533Z,88.17
2019-01-29T11:30:14.837Z,88.29
2019-01-29T11:32:21.352Z,88.04
2019-01-29T11:34:27.951Z,88.08
2019-01-29T11:36:35.110Z,88.04
2019-01-29T11:38:41.991Z,88.40
2019-01-29T11:40:48.770Z,88.04
2019-01-29T11:42:55.050Z,88.57
2019-01-29T11:45:02.211Z,88.49
2019-01-29T11:47:08.498Z,88.45
2019-01-29T11:49:15.330Z,88.50
2019-01-29T11:51:22.151Z,88.50
2019-01-29T11:53:28.453Z,88.20
2019-01-29T11:55:34.471Z,88.37
2019-01-29T11:57:41.031Z,88.36
2019-01-29T11:59:47.269Z,88.21
2019-01-29T12:01:53.708Z,88.37
2019-01-29T12:04:00.168Z,88.27
2019-01-29T12:06:06.489Z,88.17
2019-01-29T12:08:13.008Z,88.21
2019-01-29T12:10:20.068Z,88.13
2019-01-29T12:12:27.591Z,88.31
2019-01-29T12:14:34.050Z,88.44
2019-01-29T12:16:40.150Z,88.44
2019-01-29T12:18:46.385Z,88.43
2019-01-29T12:20:56.090Z,88.50
2019-01-29T12:23:02.861Z,88.51
2019-01-29T12:25:09.117Z,88.62
2019-01-29T12:27:15.653Z,88.63
2019-01-29T12:29:25.296Z,88.63
2019-01-29T12:31:31.950Z,88.93
2019-01-29T12:33:38.750Z,88.52
2019-01-29T12:35:45.091Z,88.54
2019-01-29T12:37:51.777Z,88.29
2019-01-29T12:39:57.982Z,87.52
2019-01-29T12:42:04.441Z,87.65
2019-01-29T12:44:12.033Z,87.74
2019-01-29T12:46:18.476Z,87.62
2019-01-29T12:48:25.115Z,87.61
2019-01-29T12:50:33.390Z,87.38
2019-01-29T12:52:42.111Z,87.05
2019-01-29T12:54:50.370Z,87.04
2019-01-29T12:56:57.548Z,86.74
2019-01-29T12:59:03.785Z,86.71
2019-01-29T13:01:18.608Z,86.57
2019-01-29T13:03:25.568Z,85.71
2019-01-29T13:05:32.780Z,85.66
2019-01-29T13:07:39.408Z,85.85
2019-01-29T13:09:45.836Z,85.72
2019-01-29T13:11:53.668Z,85.81
2019-01-29T13:14:00.169Z,85.00
2019-01-29T13:16:08.609Z,85.34
2019-01-29T13:18:15.932Z,85.71
2019-01-29T13:20:22.233Z,85.85
2019-01-29T13:22:28.628Z,86.04
2019-01-29T13:24:35.228Z,86.16
2019-01-29T13:26:43.408Z,85.80
2019-01-29T13:28:49.908Z,86.07
2019-01-29T13:30:56.590Z,86.34
2019-01-29T13:33:02.790Z,86.47
2019-01-29T13:35:11.473Z,86.57
2019-01-29T13:37:18.052Z,86.60
2019-01-29T13:39:24.469Z,86.53
2019-01-29T13:41:30.955Z,86.35
2019-01-29T13:43:37.309Z,86.13
2019-01-29T13:45:43.969Z,86.17
2019-01-29T13:47:50.559Z,86.07
2019-01-29T13:49:56.855Z,85.92
2019-01-29T13:52:04.148Z,85.77
2019-01-29T13:54:11.689Z,85.79
2019-01-29T13:56:20.332Z,86.01
2019-01-29T13:58:28.704Z,85.72
2019-01-29T14:00:37.438Z,85.71
2019-01-29T14:02:43.570Z,85.85
2019-01-29T14:04:51.811Z,85.59
2019-01-29T14:06:59.651Z,85.80
2019-01-29T14:09:08.871Z,85.20
2019-01-29T14:11:15.274Z,85.46
2019-01-29T14:13:21.871Z,85.36
2019-01-29T14:15:31.794Z,85.40
2019-01-29T14:17:38.491Z,85.53
2019-01-29T14:19:45.409Z,85.24
2019-01-29T14:21:51.648Z,84.75
2019-01-29T14:23:57.928Z,85.03
2019-01-29T14:26:04.313Z,85.41
2019-01-29T14:28:14.693Z,85.31
2019-01-29T14:30:31.488Z,85.65
2019-01-29T14:32:39.472Z,85.59
2019-01-29T14:34:46.031Z,86.13
2019-01-29T14:36:52.112Z,85.88
2019-01-29T14:39:21.610Z,85.68
2019-01-29T14:41:28.291Z,85.68
2019-01-29T14:43:39.199Z,85.42
2019-01-29T14:45:45.776Z,85.52
2019-01-29T14:47:52.936Z,85.77
2019-01-29T14:49:59.491Z,85.49
2019-01-29T14:52:06.349Z,85.98
2019-01-29T14:54:13.437Z,85.60
2019-01-29T14:56:20.929Z,85.43
2019-01-29T14:58:27.288Z,85.37
2019-01-29T15:00:37.638Z,85.85
2019-01-29T15:02:44.671Z,85.90
2019-01-29T15:04:51.859Z,86.21
2019-01-29T15:06:59.557Z,86.47
2019-01-29T15:09:08.631Z,86.66
2019-01-29T15:11:17.340Z,86.88
2019-01-29T15:13:23.794Z,86.91
2019-01-29T15:15:35.061Z,87.05
2019-01-29T15:17:43.701Z,86.92
2019-01-29T15:19:50.474Z,86.69
2019-01-29T15:21:56.668Z,86.62
2019-01-29T15:24:05.188Z,86.64
2019-01-29T15:26:12.069Z,86.51
2019-01-29T15:28:18.810Z,86.27
2019-01-29T15:30:30.529Z,86.26
2019-01-29T15:32:37.117Z,86.06
2019-01-29T15:34:44.549Z,85.84
2019-01-29T15:36:50.908Z,85.95
2019-01-29T15:38:57.328Z,85.46
2019-01-29T15:41:04.368Z,85.59
2019-01-29T15:43:10.708Z,85.74
2019-01-29T15:45:26.310Z,85.61
2019-01-29T15:47:32.989Z,85.46
2019-01-29T15:49:39.684Z,85.23
2019-01-29T15:51:46.388Z,85.48
2019-01-29T15:53:52.668Z,84.76
2019-01-29T15:56:00.269Z,84.28
2019-01-29T15:58:07.268Z,84.47
2019-01-29T16:00:35.808Z,83.58
2019-01-29T16:02:42.910Z,83.90
2019-01-29T16:04:50.009Z,83.29
2019-01-29T16:06:56.124Z,83.39
2019-01-29T16:09:02.600Z,83.03
2019-01-29T16:11:11.072Z,82.95
2019-01-29T16:13:18.128Z,82.77
2019-01-29T16:15:26.488Z,82.89
2019-01-29T16:17:32.877Z,82.63
2019-01-29T16:19:39.194Z,82.68
2019-01-29T16:21:45.910Z,82.68
2019-01-29T16:23:52.438Z,82.54
2019-01-29T16:25:59.069Z,82.73
2019-01-29T16:28:06.548Z,83.04
2019-01-29T16:30:31.545Z,83.31
2019-01-29T16:32:38.368Z,83.66
2019-01-29T16:34:45.468Z,83.41
2019-01-29T16:36:52.927Z,83.57
2019-01-29T16:38:59.548Z,82.85
2019-01-29T16:41:06.129Z,82.35
2019-01-29T16:43:12.629Z,81.81
2019-01-29T16:45:26.408Z,81.74
2019-01-29T16:47:35.042Z,81.56
2019-01-29T16:49:41.268Z,81.83
2019-01-29T16:51:47.777Z,81.91
2019-01-29T16:53:54.448Z,81.92
2019-01-29T16:56:02.612Z,82.38
2019-01-29T16:58:09.511Z,82.68
2019-01-29T17:00:32.409Z,82.98
2019-01-29T17:02:38.968Z,82.99
2019-01-29T17:04:45.409Z,82.85
2019-01-29T17:06:51.887Z,82.84
2019-01-29T17:08:58.510Z,83.18
2019-01-29T17:11:05.888Z,83.70
2019-01-29T17:13:12.648Z,84.11
2019-01-29T17:15:31.588Z,84.28
2019-01-29T17:17:37.978Z,84.70
2019-01-29T17:19:44.769Z,85.27
2019-01-29T17:21:51.711Z,85.28
2019-01-29T17:23:58.278Z,85.69
2019-01-29T17:26:04.618Z,85.72
2019-01-29T17:28:10.989Z,85.89
2019-01-29T17:30:45.240Z,86.18
2019-01-29T17:32:51.908Z,86.55
2019-01-29T17:34:58.540Z,87.02
2019-01-29T17:37:05.135Z,87.28
2019-01-29T17:39:11.668Z,87.48
2019-01-29T17:41:19.589Z,87.56
2019-01-29T17:43:25.988Z,87.66
2019-01-29T17:45:43.188Z,86.78
2019-01-29T17:47:51.289Z,86.72
2019-01-29T17:49:59.038Z,86.89
2019-01-29T17:52:05.592Z,86.93
2019-01-29T17:54:13.615Z,86.93
2019-01-29T17:56:20.448Z,87.00
2019-01-29T17:58:27.450Z,87.24
2019-01-29T18:00:35.729Z,87.36
2019-01-29T18:02:42.855Z,87.40
2019-01-29T18:04:52.253Z,87.56
2019-01-29T18:07:00.793Z,87.83
2019-01-29T18:09:09.675Z,88.08
2019-01-29T18:11:16.568Z,88.31
2019-01-29T18:13:23.468Z,88.29
2019-01-29T18:15:33.438Z,88.39
2019-01-29T18:17:40.188Z,88.49
2019-01-29T18:19:47.136Z,88.59
2019-01-29T18:21:56.939Z,88.45
2019-01-29T18:24:03.336Z,87.96
2019-01-29T18:26:10.436Z,87.59
2019-01-29T18:30:46.581Z,87.03
2019-01-29T18:32:53.358Z,86.98
2019-01-29T18:35:00.549Z,86.77
2019-01-29T18:37:07.255Z,86.50
2019-01-29T18:39:14.146Z,86.33
2019-01-29T18:41:20.948Z,86.12
2019-01-29T18:43:27.867Z,85.83
2019-01-29T18:45:35.988Z,85.38
2019-01-29T18:47:42.728Z,84.77
2019-01-29T18:49:51.072Z,84.49
2019-01-29T18:51:58.009Z,84.29
2019-01-29T18:54:05.429Z,83.79
2019-01-29T18:56:12.608Z,83.55
2019-01-29T18:58:21.009Z,83.20
2019-01-29T19:00:27.938Z,83.22
2019-01-29T19:02:35.888Z,82.90
2019-01-29T19:04:42.609Z,83.16
2019-01-29T19:06:50.557Z,83.37
2019-01-29T19:08:57.353Z,83.06
2019-01-29T19:11:04.415Z,83.40
2019-01-29T19:13:11.269Z,83.65
2019-01-29T19:15:23.330Z,83.79
2019-01-29T19:17:30.242Z,84.21
2019-01-29T19:19:36.930Z,84.12
2019-01-29T19:21:44.169Z,84.12
2019-01-29T19:23:51.128Z,84.06
2019-01-29T19:25:57.935Z,84.12
2019-01-29T19:28:04.729Z,84.08
2019-01-29T19:30:23.041Z,84.14
2019-01-29T19:32:31.388Z,84.20
2019-01-29T19:34:38.448Z,84.09
2019-01-29T19:36:45.074Z,83.95
2019-01-29T19:38:51.969Z,83.56
2019-01-29T19:40:58.789Z,82.99
2019-01-29T19:43:06.768Z,83.11
2019-01-29T19:45:26.475Z,82.99
2019-01-29T19:47:33.343Z,82.91
2019-01-29T19:49:40.128Z,83.04
2019-01-29T19:51:49.629Z,83.22
2019-01-29T19:53:56.041Z,83.38
2019-01-29T19:56:02.971Z,83.48
2019-01-29T19:58:10.039Z,83.34
2019-01-29T20:00:21.409Z,83.28
2019-01-29T20:02:28.248Z,83.02
2019-01-29T20:04:35.000Z,82.98
2019-01-29T20:06:41.308Z,83.17
2019-01-29T20:08:48.108Z,82.77
2019-01-29T20:10:55.068Z,82.69
2019-01-29T20:13:01.868Z,82.71
2019-01-29T20:15:12.648Z,82.46
2019-01-29T20:17:19.608Z,82.13
2019-01-29T20:19:26.090Z,82.17
2019-01-29T20:21:33.129Z,82.40
2019-01-29T20:23:41.328Z,81.94
2019-01-29T20:25:49.089Z,81.37
2019-01-29T20:27:55.673Z,81.33
2019-01-29T20:30:02.757Z,81.88
2019-01-29T20:32:09.188Z,82.38
2019-01-29T20:34:16.669Z,82.21
2019-01-29T20:36:23.494Z,81.68
2019-01-29T20:38:35.187Z,81.57
2019-01-29T20:40:39.055Z,81.57
2019-01-29T20:42:46.336Z,81.62
2019-01-29T20:44:53.168Z,81.66
2019-01-29T20:46:59.866Z,81.63
2019-01-29T20:49:06.528Z,81.70
2019-01-29T20:51:13.388Z,81.45
2019-01-29T20:53:20.229Z,81.75
2019-01-29T20:55:27.156Z,81.92
2019-01-29T20:57:34.089Z,82.16
2019-01-29T20:59:41.172Z,81.43
2019-01-29T21:01:48.948Z,81.54
2019-01-29T21:03:55.769Z,81.80
2019-01-29T21:06:03.529Z,81.93
2019-01-29T21:08:10.471Z,81.84
2019-01-29T21:10:26.271Z,81.80
2019-01-29T21:12:34.397Z,82.08
2019-01-29T21:14:41.890Z,82.18
2019-01-29T21:16:50.108Z,82.16
2019-01-29T21:18:56.802Z,82.35
2019-01-29T21:21:03.788Z,81.84
2019-01-29T21:23:10.969Z,82.24
2019-01-29T21:25:17.988Z,82.07
2019-01-29T21:27:25.110Z,82.24
2019-01-29T21:29:31.868Z,82.08
2019-01-29T21:31:40.401Z,82.52
2019-01-29T21:33:47.048Z,81.92
2019-01-29T21:35:53.728Z,81.82
2019-01-29T21:38:00.356Z,81.92
2019-01-29T21:40:13.397Z,81.83
2019-01-29T21:42:22.090Z,82.12
2019-01-29T21:44:28.649Z,82.48
2019-01-29T21:46:35.072Z,82.25
2019-01-29T21:48:41.950Z,82.55
2019-01-29T21:50:48.809Z,82.21
2019-01-29T21:52:55.576Z,81.87
2019-01-29T21:55:02.909Z,82.16
2019-01-29T21:57:10.029Z,82.07
2019-01-29T21:59:16.388Z,82.16
2019-01-29T22:01:23.068Z,82.37
2019-01-29T22:03:29.288Z,82.43
2019-01-29T22:05:36.767Z,82.01
2019-01-29T22:07:43.268Z,82.23
2019-01-29T22:09:49.548Z,82.57
2019-01-29T22:11:56.189Z,82.64
2019-01-29T22:14:12.328Z,82.74
2019-01-29T22:16:19.429Z,82.93
2019-01-29T22:18:25.868Z,82.89
2019-01-29T22:20:33.431Z,82.75
2019-01-29T22:22:42.108Z,82.98
2019-01-29T22:24:48.368Z,83.15
2019-01-29T22:26:55.689Z,83.09
2019-01-29T22:29:02.048Z,82.95
2019-01-29T22:31:08.308Z,83.08
2019-01-29T22:33:16.109Z,82.99
2019-01-29T22:35:22.389Z,82.90
2019-01-29T22:37:28.768Z,82.81
2019-01-29T22:39:35.708Z,82.85
2019-01-29T22:41:42.068Z,83.00
2019-01-29T22:43:50.268Z,82.70
2019-01-29T22:45:56.648Z,82.81
2019-01-29T22:48:04.662Z,83.16
2019-01-29T22:50:16.088Z,83.31
2019-01-29T22:52:22.668Z,83.15
2019-01-29T22:54:28.908Z,82.84
2019-01-29T22:56:35.730Z,83.07
2019-01-29T22:58:43.728Z,82.93
2019-01-29T23:01:09.528Z,82.92
2019-01-29T23:03:17.728Z,82.67
2019-01-29T23:05:25.213Z,82.55
2019-01-29T23:07:32.848Z,82.61
2019-01-29T23:09:40.148Z,82.54
2019-01-29T23:11:47.311Z,83.05
2019-01-29T23:13:53.808Z,83.05
2019-01-29T23:16:00.310Z,83.26
2019-01-29T23:18:07.688Z,82.82
2019-01-29T23:20:17.149Z,83.03
2019-01-29T23:22:23.930Z,83.24
2019-01-29T23:24:31.988Z,83.70
2019-01-29T23:26:38.308Z,83.49
2019-01-29T23:28:44.588Z,83.33
2019-01-29T23:30:50.968Z,83.17
2019-01-29T23:32:57.289Z,83.24
2019-01-29T23:35:05.749Z,83.59
2019-01-29T23:37:12.228Z,83.36
2019-01-29T23:39:20.090Z,83.00
2019-01-29T23:41:29.361Z,83.15
2019-01-29T23:43:35.789Z,83.47
2019-01-29T23:45:42.151Z,83.41
2019-01-29T23:47:49.910Z,83.46
2019-01-29T23:49:57.089Z,83.77
2019-01-29T23:52:04.249Z,83.57
2019-01-29T23:54:10.672Z,83.37
2019-01-29T23:56:17.329Z,82.87
2019-01-29T23:58:24.668Z,82.82
